createdAt,value
2019-04-09T00:01:59.323Z,100502.47
2019-04-09T00:04:27.764Z,100503.06
2019-04-09T00:06:56.324Z,100500.48
2019-04-09T00:09:25.086Z,100499.57
2019-04-09T00:11:54.025Z,100498.11
2019-04-09T00:14:24.152Z,100493.59
2019-04-09T00:16:52.535Z,100495.72
2019-04-09T00:19:21.103Z,100495.48
2019-04-09T00:21:49.957Z,100495.55
2019-04-09T00:24:18.803Z,100497.12
2019-04-09T00:26:52.177Z,100497.38
2019-04-09T00:29:18.474Z,100493.86
2019-04-09T00:31:47.465Z,100492.64
2019-04-09T00:34:15.906Z,100487.59
2019-04-09T00:36:44.311Z,100495.26
2019-04-09T00:39:12.760Z,100494.65
2019-04-09T00:41:42.100Z,100497.14
2019-04-09T00:44:10.635Z,100500.50
2019-04-09T00:46:39.036Z,100500.17
2019-04-09T00:49:07.437Z,100502.94
2019-04-09T00:51:35.906Z,100503.88
2019-04-09T00:54:05.034Z,100506.30
2019-04-09T00:56:33.776Z,100504.38
2019-04-09T00:59:02.147Z,100498.77
2019-04-09T01:01:32.430Z,100508.27
2019-04-09T01:04:01.328Z,100500.33
2019-04-09T01:06:29.746Z,100497.33
2019-04-09T01:08:58.408Z,100494.06
2019-04-09T01:11:27.590Z,100497.00
2019-04-09T01:13:56.183Z,100499.81
2019-04-09T01:16:24.772Z,100501.50
2019-04-09T01:18:54.224Z,100502.02
2019-04-09T01:21:23.040Z,100504.70
2019-04-09T01:23:51.419Z,100505.79
2019-04-09T01:26:30.837Z,100507.84
2019-04-09T01:29:56.944Z,100501.20
2019-04-09T01:32:44.471Z,100498.81
2019-04-09T01:35:31.997Z,100503.80
2019-04-09T01:38:38.765Z,100508.63
2019-04-09T01:41:26.947Z,100505.85
2019-04-09T01:44:14.479Z,100503.44
2019-04-09T01:47:02.095Z,100502.29
2019-04-09T01:52:58.781Z,100512.84
2019-04-09T01:55:46.316Z,100513.73
2019-04-09T01:58:53.609Z,100515.34
2019-04-09T02:04:39.240Z,100521.48
2019-04-09T02:07:26.761Z,100516.00
2019-04-09T02:10:33.528Z,100516.28
2019-04-09T02:13:21.052Z,100517.56
2019-04-09T02:16:08.572Z,100521.02
2019-04-09T02:18:56.450Z,100520.34
2019-04-09T02:22:03.976Z,100523.12
2019-04-09T02:24:52.143Z,100523.38
2019-04-09T02:33:13.256Z,100514.52
2019-04-09T02:36:01.701Z,100515.53
2019-04-09T02:39:09.285Z,100515.27
2019-04-09T02:42:17.603Z,100512.53
2019-04-09T02:45:05.119Z,100519.70
2019-04-09T02:47:52.641Z,100520.09
2019-04-09T02:50:40.494Z,100519.92
2019-04-09T02:53:28.052Z,100520.04
2019-04-09T02:56:16.279Z,100524.63
2019-04-09T02:59:04.801Z,100524.41
2019-04-09T03:01:52.744Z,100526.73
2019-04-09T03:04:59.969Z,100519.51
2019-04-09T03:07:48.141Z,100532.99
2019-04-09T03:16:38.779Z,100532.86
2019-04-09T03:22:15.377Z,100527.28
2019-04-09T03:25:03.636Z,100528.87
2019-04-09T03:28:01.901Z,100530.02
2019-04-09T03:30:41.466Z,100529.28
2019-04-09T03:33:29.554Z,100529.83
2019-04-09T03:36:18.913Z,100524.72
2019-04-09T03:39:07.124Z,100537.17
2019-04-09T03:41:55.259Z,100533.21
2019-04-09T03:47:32.911Z,100539.81
2019-04-09T03:50:41.222Z,100533.93
2019-04-09T03:53:28.764Z,100537.27
2019-04-09T03:56:16.283Z,100535.84
2019-04-09T03:59:23.060Z,100548.16
2019-04-09T04:07:44.112Z,100548.23
2019-04-09T04:10:31.588Z,100551.20
2019-04-09T04:13:19.117Z,100558.99
2019-04-09T04:16:26.199Z,100556.03
2019-04-09T04:19:13.689Z,100557.44
2019-04-09T04:22:02.219Z,100559.94
2019-04-09T04:25:10.159Z,100557.57
2019-04-09T04:27:58.605Z,100557.33
2019-04-09T04:30:46.963Z,100554.94
2019-04-09T04:39:45.470Z,100558.82
2019-04-09T04:42:34.030Z,100562.98
2019-04-09T04:45:22.084Z,100558.25
2019-04-09T04:48:09.536Z,100564.25
2019-04-09T04:50:57.836Z,100563.13
2019-04-09T04:53:46.789Z,100566.02
2019-04-09T04:56:54.335Z,100567.95
2019-04-09T04:59:42.277Z,100568.52
2019-04-09T05:02:29.794Z,100570.20
2019-04-09T05:05:36.572Z,100575.46
2019-04-09T05:08:24.097Z,100580.12
2019-04-09T05:11:12.494Z,100577.72
2019-04-09T05:14:20.105Z,100581.62
2019-04-09T05:17:26.908Z,100581.84
2019-04-09T05:20:15.212Z,100589.52
2019-04-09T05:23:03.750Z,100585.61
2019-04-09T05:25:51.564Z,100587.67
2019-04-09T05:28:50.755Z,100597.71
2019-04-09T05:31:28.330Z,100595.86
2019-04-09T05:34:15.952Z,100605.44
2019-04-09T05:37:04.512Z,100610.13
2019-04-09T05:39:52.719Z,100614.59
2019-04-09T05:42:40.207Z,100611.91
2019-04-09T05:48:23.515Z,100617.58
2019-04-09T05:51:11.067Z,100621.81
2019-04-09T05:53:58.842Z,100620.03
2019-04-09T05:56:47.403Z,100612.17
2019-04-09T06:02:12.168Z,100625.30
2019-04-09T06:10:31.027Z,100634.01
2019-04-09T06:12:59.421Z,100631.93
2019-04-09T06:15:47.535Z,100637.81
2019-04-09T06:18:18.133Z,100633.77
2019-04-09T06:21:31.140Z,100645.77
2019-04-09T06:23:58.458Z,100648.10
2019-04-09T06:26:28.503Z,100654.14
2019-04-09T06:28:57.632Z,100647.73
2019-04-09T06:37:29.017Z,100657.23
2019-04-09T06:40:16.541Z,100649.76
2019-04-09T06:43:05.203Z,100650.33
2019-04-09T06:45:53.441Z,100653.22
2019-04-09T07:00:34.035Z,100662.09
2019-04-09T07:03:21.523Z,100657.20
2019-04-09T07:06:09.053Z,100660.98
2019-04-09T07:14:40.589Z,100657.74
2019-04-09T07:20:19.161Z,100661.11
2019-04-09T07:23:06.438Z,100661.88
2019-04-09T07:26:15.011Z,100666.95
2019-04-09T07:29:03.998Z,100658.45
2019-04-09T07:34:26.980Z,100662.17
2019-04-09T07:37:15.671Z,100667.33
2019-04-09T07:42:45.893Z,100669.52
2019-04-09T07:48:45.970Z,100667.73
2019-04-09T07:51:34.750Z,100668.22
2019-04-09T07:54:47.504Z,100672.24
2019-04-09T08:00:43.519Z,100674.98
2019-04-09T08:03:31.125Z,100671.22
2019-04-09T08:06:19.532Z,100679.39
2019-04-09T08:09:07.517Z,100679.64
2019-04-09T08:14:49.636Z,100684.90
2019-04-09T08:17:44.909Z,100671.45
2019-04-09T08:20:48.237Z,100677.25
2019-04-09T08:26:26.846Z,100681.61
2019-04-09T08:32:46.113Z,100679.34
2019-04-09T08:40:50.047Z,100683.90
2019-04-09T08:43:37.317Z,100681.67
2019-04-09T08:49:04.338Z,100686.23
2019-04-09T08:51:51.862Z,100680.48
2019-04-09T08:57:49.324Z,100680.60
2019-04-09T09:03:54.714Z,100682.08
2019-04-09T09:06:35.975Z,100686.13
2019-04-09T09:09:47.535Z,100675.67
2019-04-09T09:12:52.846Z,100678.33
2019-04-09T09:15:59.636Z,100673.16
2019-04-09T09:22:14.744Z,100670.48
2019-04-09T09:25:02.264Z,100662.84
2019-04-09T09:27:49.889Z,100666.75
2019-04-09T09:33:35.009Z,100662.80
2019-04-09T09:36:22.508Z,100657.94
2019-04-09T09:42:01.063Z,100663.73
2019-04-09T09:47:38.644Z,100664.00
2019-04-09T09:50:47.559Z,100665.02
2019-04-09T09:53:36.180Z,100658.48
2019-04-09T09:56:45.433Z,100658.31
2019-04-09T10:02:44.948Z,100649.60
2019-04-09T10:05:52.094Z,100643.55
2019-04-09T10:08:39.620Z,100650.75
2019-04-09T10:11:28.469Z,100648.59
2019-04-09T10:14:16.381Z,100645.99
2019-04-09T10:20:00.228Z,100646.61
2019-04-09T10:25:48.159Z,100641.53
2019-04-09T10:28:36.485Z,100636.19
2019-04-09T10:34:26.006Z,100626.91
2019-04-09T10:39:53.669Z,100622.08
2019-04-09T10:45:23.494Z,100619.45
2019-04-09T10:48:10.633Z,100626.86
2019-04-09T10:50:58.588Z,100619.30
2019-04-09T10:53:46.175Z,100620.03
2019-04-09T10:56:34.825Z,100616.05
2019-04-09T11:02:36.951Z,100615.74
2019-04-09T11:05:49.124Z,100617.13
2019-04-09T11:08:38.147Z,100612.73
2019-04-09T11:14:31.812Z,100611.13
2019-04-09T11:17:41.326Z,100605.20
2019-04-09T11:20:51.045Z,100609.76
2019-04-09T11:26:18.487Z,100602.73
2019-04-09T11:29:06.009Z,100598.47
2019-04-09T11:32:14.331Z,100598.48
2019-04-09T11:35:01.954Z,100598.14
2019-04-09T11:38:08.720Z,100603.98
2019-04-09T11:40:56.249Z,100614.45
2019-04-09T11:44:03.031Z,100610.75
2019-04-09T11:47:10.727Z,100613.40
2019-04-09T11:50:20.161Z,100603.74
2019-04-09T11:53:28.113Z,100605.49
2019-04-09T11:56:15.925Z,100608.89
2019-04-09T11:59:28.265Z,100602.88
2019-04-09T12:02:14.987Z,100598.19
2019-04-09T12:05:02.773Z,100609.55
2019-04-09T12:07:50.470Z,100602.29
2019-04-09T12:10:38.556Z,100601.55
2019-04-09T12:13:26.533Z,100608.47
2019-04-09T12:16:15.306Z,100609.63
2019-04-09T12:19:04.200Z,100605.56
2019-04-09T12:21:53.256Z,100596.76
2019-04-09T12:29:51.498Z,100601.05
2019-04-09T12:32:39.801Z,100600.45
2019-04-09T12:35:49.063Z,100604.13
2019-04-09T12:38:37.604Z,100594.79
2019-04-09T12:44:24.127Z,100593.98
2019-04-09T12:50:07.601Z,100591.31
2019-04-09T12:52:55.240Z,100594.56
2019-04-09T12:55:42.774Z,100597.20
2019-04-09T12:58:30.494Z,100597.21
2019-04-09T13:01:37.356Z,100589.38
2019-04-09T13:04:25.956Z,100586.02
2019-04-09T13:07:16.356Z,100586.13
2019-04-09T13:12:58.374Z,100577.29
2019-04-09T13:18:21.638Z,100586.95
2019-04-09T13:21:10.652Z,100584.93
2019-04-09T13:23:58.170Z,100576.03
2019-04-09T13:26:45.871Z,100584.98
2019-04-09T13:35:17.839Z,100576.09
2019-04-09T13:40:44.914Z,100571.02
2019-04-09T13:43:33.406Z,100572.94
2019-04-09T13:48:57.244Z,100571.70
2019-04-09T13:51:44.761Z,100583.29
2019-04-09T13:54:33.370Z,100574.73
2019-04-09T13:57:02.717Z,100569.05
2019-04-09T13:59:50.303Z,100585.99
2019-04-09T14:05:17.893Z,100568.11
2019-04-09T14:07:47.381Z,100567.63
2019-04-09T14:10:47.085Z,100563.91
2019-04-09T14:13:25.603Z,100565.69
2019-04-09T14:16:14.532Z,100558.33
2019-04-09T14:19:04.078Z,100560.64
2019-04-09T14:21:33.540Z,100557.97
2019-04-09T14:26:49.906Z,100567.39
2019-04-09T14:32:26.435Z,100553.39
2019-04-09T14:35:14.085Z,100560.27
2019-04-09T14:37:43.739Z,100561.34
2019-04-09T14:40:12.441Z,100562.22
2019-04-09T14:42:40.867Z,100560.14
2019-04-09T14:45:09.498Z,100561.09
2019-04-09T14:47:39.114Z,100547.81
2019-04-09T14:50:08.012Z,100562.55
2019-04-09T14:52:49.367Z,100560.00
2019-04-09T14:55:06.693Z,100563.03
2019-04-09T14:57:35.101Z,100561.84
2019-04-09T15:00:07.178Z,100564.03
2019-04-09T15:02:35.588Z,100559.41
2019-04-09T15:05:05.720Z,100564.44
2019-04-09T15:07:35.252Z,100560.44
2019-04-09T15:10:04.780Z,100559.05
2019-04-09T15:12:33.747Z,100566.77
2019-04-09T15:18:31.694Z,100566.34
2019-04-09T15:21:20.400Z,100554.30
2019-04-09T15:23:49.239Z,100562.11
2019-04-09T15:26:59.031Z,100548.30
2019-04-09T15:29:29.444Z,100563.53
2019-04-09T15:32:19.106Z,100558.14
2019-04-09T15:34:49.469Z,100556.75
2019-04-09T15:37:19.191Z,100550.31
2019-04-09T15:40:28.732Z,100547.85
2019-04-09T15:42:57.233Z,100557.98
2019-04-09T15:45:45.504Z,100554.76
2019-04-09T15:48:34.350Z,100553.62
2019-04-09T15:51:02.818Z,100550.97
2019-04-09T15:53:51.252Z,100544.41
2019-04-09T15:56:20.608Z,100546.16
2019-04-09T15:59:09.241Z,100544.48
2019-04-09T16:01:58.228Z,100541.13
2019-04-09T16:04:28.120Z,100540.05
2019-04-09T16:06:57.848Z,100541.09
2019-04-09T16:09:45.615Z,100551.28
2019-04-09T16:15:21.103Z,100538.27
2019-04-09T16:18:08.677Z,100549.84
2019-04-09T16:20:56.952Z,100546.19
2019-04-09T16:23:45.568Z,100552.72
2019-04-09T16:26:14.663Z,100557.50
2019-04-09T16:28:44.405Z,100559.34
2019-04-09T16:31:32.859Z,100554.49
2019-04-09T16:34:21.534Z,100551.42
2019-04-09T16:36:59.868Z,100559.59
2019-04-09T16:39:20.047Z,100554.92
2019-04-09T16:42:08.265Z,100564.55
2019-04-09T16:44:51.813Z,100564.27
2019-04-09T16:47:27.169Z,100573.56
2019-04-09T16:50:14.992Z,100568.45
2019-04-09T16:52:44.489Z,100565.20
2019-04-09T16:55:34.030Z,100560.81
2019-04-09T16:58:43.661Z,100565.64
2019-04-09T17:01:32.226Z,100563.39
2019-04-09T17:06:35.142Z,100566.09
2019-04-09T17:09:44.708Z,100567.90
2019-04-09T17:12:13.590Z,100566.29
2019-04-09T17:14:44.042Z,100571.58
2019-04-09T17:17:32.477Z,100569.16
2019-04-09T17:20:20.133Z,100577.07
2019-04-09T17:23:07.796Z,100580.28
2019-04-09T17:25:37.207Z,100582.36
2019-04-09T17:28:06.835Z,100578.92
2019-04-09T17:30:36.451Z,100583.08
2019-04-09T17:33:45.481Z,100591.66
2019-04-09T17:36:34.240Z,100588.30
2019-04-09T17:42:03.796Z,100586.59
2019-04-09T17:44:46.936Z,100590.95
2019-04-09T17:47:15.355Z,100592.83
2019-04-09T17:49:43.741Z,100594.31
2019-04-09T17:52:32.526Z,100594.61
2019-04-09T17:55:01.504Z,100597.88
2019-04-09T17:57:30.239Z,100606.31
2019-04-09T18:00:01.137Z,100601.20
2019-04-09T18:02:49.402Z,100607.89
2019-04-09T18:05:57.716Z,100609.81
2019-04-09T18:11:21.261Z,100620.26
2019-04-09T18:14:08.790Z,100617.44
2019-04-09T18:16:38.352Z,100614.80
2019-04-09T18:21:42.790Z,100620.23
2019-04-09T18:24:12.800Z,100622.82
2019-04-09T18:29:29.495Z,100623.72
2019-04-09T18:32:19.112Z,100627.98
2019-04-09T18:35:07.015Z,100632.30
2019-04-09T18:37:54.683Z,100632.78
2019-04-09T18:40:23.089Z,100647.60
2019-04-09T18:42:52.572Z,100648.08
2019-04-09T18:45:21.611Z,100651.34
2019-04-09T18:47:50.003Z,100655.76
2019-04-09T18:50:18.889Z,100656.79
2019-04-09T18:52:48.546Z,100655.98
2019-04-09T18:55:37.027Z,100657.94
2019-04-09T18:58:06.443Z,100659.50
2019-04-09T19:01:15.067Z,100667.16
2019-04-09T19:03:44.878Z,100668.01
2019-04-09T19:06:53.189Z,100678.53
2019-04-09T19:12:00.430Z,100677.79
2019-04-09T19:14:28.811Z,100689.62
2019-04-09T19:20:03.903Z,100697.87
2019-04-09T19:22:51.412Z,100696.87
2019-04-09T19:25:19.952Z,100694.35
2019-04-09T19:27:48.338Z,100704.28
2019-04-09T19:30:16.984Z,100708.02
2019-04-09T19:32:45.497Z,100706.53
2019-04-09T19:35:21.217Z,100710.83
2019-04-09T19:37:44.784Z,100713.03
2019-04-09T19:40:32.403Z,100712.56
2019-04-09T19:43:00.836Z,100710.17
2019-04-09T19:45:48.453Z,100714.63
2019-04-09T19:48:17.834Z,100714.34
2019-04-09T19:50:47.950Z,100717.39
2019-04-09T19:53:18.071Z,100713.00
2019-04-09T19:56:06.869Z,100713.24
2019-04-09T19:58:44.586Z,100725.39
2019-04-09T20:01:07.920Z,100728.44
2019-04-09T20:03:37.808Z,100724.17
2019-04-09T20:06:07.668Z,100723.71
2019-04-09T20:12:07.028Z,100732.89
2019-04-09T20:14:36.794Z,100737.30
2019-04-09T20:17:25.905Z,100739.98
2019-04-09T20:20:15.653Z,100737.02
2019-04-09T20:22:45.570Z,100739.12
2019-04-09T20:25:55.822Z,100740.41
2019-04-09T20:31:12.666Z,100740.19
2019-04-09T20:34:00.307Z,100741.72
2019-04-09T20:36:49.302Z,100742.19
2019-04-09T20:44:40.082Z,100730.55
2019-04-09T20:47:28.949Z,100740.09
2019-04-09T20:50:17.232Z,100729.78
2019-04-09T20:53:05.237Z,100745.59
2019-04-09T20:55:54.191Z,100743.22
2019-04-09T20:58:22.600Z,100743.98
2019-04-09T21:03:56.552Z,100752.30
2019-04-09T21:08:58.095Z,100748.66
2019-04-09T21:11:46.543Z,100756.09
2019-04-09T21:17:03.312Z,100750.80
2019-04-09T21:19:51.047Z,100755.53
2019-04-09T21:24:53.923Z,100750.56
2019-04-09T21:27:23.339Z,100757.95
2019-04-09T21:30:11.695Z,100753.06
2019-04-09T21:32:40.349Z,100758.19
2019-04-09T21:36:03.696Z,100750.49
2019-04-09T21:38:20.331Z,100759.03
2019-04-09T21:41:07.983Z,100757.88
2019-04-09T21:43:36.396Z,100764.81
2019-04-09T21:46:44.837Z,100764.54
2019-04-09T21:49:13.771Z,100762.16
2019-04-09T21:51:43.973Z,100754.89
2019-04-09T21:54:13.571Z,100765.23
2019-04-09T21:57:01.230Z,100759.55
2019-04-09T21:59:48.755Z,100760.00
2019-04-09T22:02:36.496Z,100763.03
2019-04-09T22:05:44.873Z,100758.84
2019-04-09T22:08:14.024Z,100765.39
2019-04-09T22:10:43.388Z,100765.96
2019-04-09T22:13:12.281Z,100764.34
2019-04-09T22:21:03.747Z,100766.00
2019-04-09T22:23:43.609Z,100774.11
2019-04-09T22:26:03.229Z,100771.60
2019-04-09T22:28:32.311Z,100771.91
2019-04-09T22:31:02.012Z,100777.05
2019-04-09T22:33:49.538Z,100776.63
2019-04-09T22:39:46.179Z,100775.82
2019-04-09T22:42:34.778Z,100776.95
2019-04-09T22:48:30.969Z,100770.89
2019-04-09T22:53:49.153Z,100776.81
2019-04-09T22:56:18.633Z,100775.75
2019-04-09T23:02:01.639Z,100782.75
2019-04-09T23:04:49.188Z,100782.92
2019-04-09T23:07:36.729Z,100783.09
2019-04-09T23:10:45.050Z,100778.38
2019-04-09T23:13:14.376Z,100776.23
2019-04-09T23:18:33.057Z,100781.42
2019-04-09T23:21:22.021Z,100777.77
2019-04-09T23:26:24.109Z,100779.60
2019-04-09T23:28:52.517Z,100775.02
2019-04-09T23:31:41.068Z,100777.62
2019-04-09T23:34:10.855Z,100779.41
2019-04-09T23:39:27.086Z,100783.00
2019-04-09T23:41:55.481Z,100782.05
2019-04-09T23:44:44.239Z,100771.92
2019-04-09T23:47:33.237Z,100775.75
2019-04-09T23:50:21.619Z,100771.59
2019-04-09T23:52:50.027Z,100775.94
2019-04-09T23:58:06.007Z,100774.30
